createdAt,value
2022-09-09T00:04:41.631Z,16.33
2022-09-09T00:09:49.361Z,16.25
2022-09-09T00:14:55.706Z,16.17
2022-09-09T00:20:03.253Z,15.07
2022-09-09T00:25:14.038Z,15.48
2022-09-09T00:30:20.767Z,15.85
2022-09-09T00:35:26.259Z,15.93
2022-09-09T00:40:35.374Z,15.74
2022-09-09T00:46:00.789Z,15.98
2022-09-09T00:51:12.279Z,16.05
2022-09-09T00:56:22.631Z,14.69
2022-09-09T01:01:25.517Z,14.78
2022-09-09T01:06:32.722Z,14.98
2022-09-09T01:11:45.044Z,15.50
2022-09-09T01:16:49.073Z,14.84
2022-09-09T01:22:02.665Z,15.17
2022-09-09T01:27:08.630Z,14.77
2022-09-09T01:32:41.042Z,14.72
2022-09-09T01:37:44.217Z,14.27
2022-09-09T01:42:48.338Z,14.54
2022-09-09T01:47:51.375Z,14.05
2022-09-09T01:52:59.783Z,13.53
2022-09-09T01:58:24.576Z,13.99
2022-09-09T02:03:29.242Z,14.46
2022-09-09T02:08:39.205Z,13.41
2022-09-09T02:13:46.001Z,13.89
2022-09-09T02:18:54.269Z,14.01
2022-09-09T02:23:59.195Z,14.13
2022-09-09T02:29:06.951Z,13.33
2022-09-09T02:34:13.012Z,12.74
2022-09-09T02:39:16.110Z,13.01
2022-09-09T02:44:21.303Z,12.92
2022-09-09T02:49:34.761Z,13.39
2022-09-09T02:54:40.234Z,14.20
2022-09-09T02:59:46.058Z,14.75
2022-09-09T03:04:51.909Z,15.16
2022-09-09T03:09:55.929Z,15.20
2022-09-09T03:14:59.974Z,14.18
2022-09-09T03:20:03.610Z,13.58
2022-09-09T03:25:07.778Z,13.64
2022-09-09T03:30:12.901Z,13.87
2022-09-09T03:35:16.475Z,14.66
2022-09-09T03:40:20.380Z,14.80
2022-09-09T03:45:24.290Z,14.42
2022-09-09T03:50:26.941Z,14.58
2022-09-09T03:55:29.352Z,14.59
2022-09-09T04:00:33.542Z,14.93
2022-09-09T04:05:36.117Z,14.69
2022-09-09T04:10:38.782Z,13.92
2022-09-09T04:15:43.174Z,13.36
2022-09-09T04:20:48.450Z,13.69
2022-09-09T04:25:52.376Z,13.72
2022-09-09T04:30:57.902Z,13.17
2022-09-09T04:36:00.667Z,14.01
2022-09-09T04:41:03.155Z,14.04
2022-09-09T04:46:07.902Z,14.59
2022-09-09T04:51:13.508Z,15.02
2022-09-09T04:56:18.406Z,15.30
2022-09-09T05:01:24.813Z,15.51
2022-09-09T05:06:27.365Z,15.64
2022-09-09T05:11:31.886Z,15.86
2022-09-09T05:16:35.703Z,15.95
2022-09-09T05:21:38.301Z,16.11
2022-09-09T05:26:40.816Z,16.13
2022-09-09T05:31:44.803Z,16.05
2022-09-09T05:36:47.974Z,16.31
2022-09-09T05:41:50.565Z,16.14
2022-09-09T05:46:55.331Z,16.48
2022-09-09T05:51:57.909Z,14.84
2022-09-09T05:57:00.563Z,16.02
2022-09-09T06:02:04.440Z,16.42
2022-09-09T06:07:07.954Z,16.72
2022-09-09T06:12:10.880Z,16.74
2022-09-09T06:17:14.653Z,16.97
2022-09-09T06:22:17.656Z,17.34
2022-09-09T06:27:20.099Z,17.49
2022-09-09T06:32:24.085Z,17.76
2022-09-09T06:37:27.903Z,17.95
2022-09-09T06:42:30.529Z,17.98
2022-09-09T06:47:34.662Z,17.92
2022-09-09T06:52:37.109Z,17.92
2022-09-09T06:57:39.493Z,18.28
2022-09-09T07:02:43.385Z,18.74
2022-09-09T07:07:45.829Z,18.65
2022-09-09T07:12:53.615Z,18.55
2022-09-09T07:17:57.631Z,19.05
2022-09-09T07:23:00.338Z,19.06
2022-09-09T07:28:04.328Z,18.97
2022-09-09T07:33:08.694Z,19.37
2022-09-09T07:38:12.123Z,19.25
2022-09-09T07:43:17.370Z,19.55
2022-09-09T07:48:21.284Z,19.64
2022-09-09T07:53:23.992Z,19.72
2022-09-09T07:58:26.384Z,19.60
2022-09-09T08:03:30.208Z,19.88
2022-09-09T08:08:32.689Z,19.76
2022-09-09T08:13:36.414Z,20.05
2022-09-09T08:18:41.081Z,20.38
2022-09-09T08:23:44.513Z,20.41
2022-09-09T08:28:47.124Z,20.42
2022-09-09T08:33:53.256Z,20.72
2022-09-09T08:38:57.469Z,20.43
2022-09-09T08:44:04.330Z,20.61
2022-09-09T08:49:19.506Z,20.49
2022-09-09T08:54:48.381Z,21.22
2022-09-09T08:59:44.910Z,21.35
2022-09-09T09:05:01.240Z,21.57
2022-09-09T09:10:30.536Z,21.45
2022-09-09T09:15:39.841Z,21.29
2022-09-09T09:20:52.796Z,21.10
2022-09-09T09:26:00.406Z,21.39
2022-09-09T09:31:07.099Z,21.15
2022-09-09T09:36:11.078Z,21.55
2022-09-09T09:41:13.431Z,21.83
2022-09-09T09:46:24.406Z,22.16
2022-09-09T09:51:30.226Z,22.77
2022-09-09T09:56:33.452Z,22.41
2022-09-09T10:01:37.214Z,22.87
2022-09-09T10:06:41.655Z,23.56
2022-09-09T10:11:53.376Z,23.55
2022-09-09T10:17:09.834Z,22.92
2022-09-09T10:22:27.711Z,23.99
2022-09-09T10:27:40.556Z,24.96
2022-09-09T10:32:48.814Z,24.95
2022-09-09T10:38:07.930Z,25.85
2022-09-09T10:43:22.097Z,25.47
2022-09-09T10:48:38.221Z,26.54
2022-09-09T10:53:54.477Z,25.34
2022-09-09T10:59:02.533Z,28.05
2022-09-09T11:04:11.842Z,30.42
2022-09-09T11:09:19.302Z,32.46
2022-09-09T11:14:28.839Z,32.43
2022-09-09T11:19:36.829Z,34.88
2022-09-09T11:24:44.053Z,31.37
2022-09-09T11:30:04.371Z,29.67
2022-09-09T11:35:25.262Z,30.18
2022-09-09T11:40:31.503Z,29.26
2022-09-09T11:45:36.777Z,28.43
2022-09-09T11:50:41.430Z,30.55
2022-09-09T11:55:45.639Z,31.84
2022-09-09T12:00:51.026Z,31.64
2022-09-09T12:05:54.227Z,37.06
2022-09-09T12:11:00.488Z,34.56
2022-09-09T12:16:06.220Z,31.09
2022-09-09T12:21:20.585Z,31.92
2022-09-09T12:26:42.916Z,29.28
2022-09-09T12:31:50.758Z,28.83
2022-09-09T12:37:00.280Z,32.72
2022-09-09T12:42:05.123Z,32.58
2022-09-09T12:47:08.083Z,31.86
2022-09-09T12:52:15.742Z,30.65
2022-09-09T12:57:19.782Z,27.98
2022-09-09T13:02:24.351Z,25.49
2022-09-09T13:07:27.440Z,25.25
2022-09-09T13:12:31.364Z,27.46
2022-09-09T13:17:34.360Z,26.26
2022-09-09T13:22:38.541Z,28.02
2022-09-09T13:27:44.154Z,32.17
2022-09-09T13:32:46.726Z,34.80
2022-09-09T13:37:49.204Z,32.36
2022-09-09T13:42:58.098Z,28.04
2022-09-09T13:48:11.093Z,27.47
2022-09-09T13:53:13.739Z,27.40
2022-09-09T13:58:22.613Z,26.40
2022-09-09T14:03:25.195Z,26.82
2022-09-09T14:08:29.341Z,26.80
2022-09-09T14:13:33.890Z,25.40
2022-09-09T14:18:36.623Z,24.54
2022-09-09T14:23:39.922Z,24.03
2022-09-09T14:28:59.589Z,28.04
2022-09-09T14:34:02.325Z,25.61
2022-09-09T14:39:05.296Z,25.33
2022-09-09T14:44:09.101Z,25.05
2022-09-09T14:49:13.749Z,24.85
2022-09-09T14:54:17.217Z,26.64
2022-09-09T14:59:21.012Z,29.59
2022-09-09T15:04:23.649Z,30.48
2022-09-09T15:09:26.346Z,30.36
2022-09-09T15:14:30.209Z,27.21
2022-09-09T15:19:33.246Z,26.44
2022-09-09T15:24:36.403Z,25.09
2022-09-09T15:29:40.316Z,24.15
2022-09-09T15:34:42.988Z,23.87
2022-09-09T15:39:45.475Z,23.39
2022-09-09T15:44:49.277Z,23.80
2022-09-09T15:49:51.633Z,23.59
2022-09-09T15:54:54.129Z,23.53
2022-09-09T15:59:57.885Z,23.50
2022-09-09T16:05:01.285Z,23.77
2022-09-09T16:10:04.385Z,22.95
2022-09-09T16:15:14.346Z,22.80
2022-09-09T16:20:16.828Z,22.81
2022-09-09T16:25:19.679Z,22.65
2022-09-09T16:30:23.439Z,22.86
2022-09-09T16:35:25.872Z,22.71
2022-09-09T16:40:28.389Z,22.66
2022-09-09T16:45:33.120Z,23.10
2022-09-09T16:50:35.810Z,22.72
2022-09-09T16:55:43.394Z,22.79
2022-09-09T17:00:48.615Z,23.06
2022-09-09T17:05:51.742Z,22.80
2022-09-09T17:10:54.227Z,22.49
2022-09-09T17:16:02.772Z,22.19
2022-09-09T17:21:07.583Z,22.58
2022-09-09T17:26:12.436Z,22.28
2022-09-09T17:31:18.714Z,22.43
2022-09-09T17:36:23.818Z,22.15
2022-09-09T17:41:28.608Z,21.91
2022-09-09T17:46:35.278Z,21.69
2022-09-09T17:51:38.307Z,21.60
2022-09-09T17:56:42.125Z,21.59
2022-09-09T18:01:47.800Z,21.44
2022-09-09T18:06:52.146Z,21.37
2022-09-09T18:11:56.679Z,20.58
2022-09-09T18:17:01.719Z,20.69
2022-09-09T18:22:06.878Z,20.75
2022-09-09T18:27:09.319Z,20.08
2022-09-09T18:32:14.987Z,20.26
2022-09-09T18:37:19.642Z,20.47
2022-09-09T18:42:22.121Z,19.93
2022-09-09T18:47:25.966Z,19.75
2022-09-09T18:52:28.452Z,19.01
2022-09-09T18:57:35.838Z,19.06
2022-09-09T19:02:40.370Z,18.78
2022-09-09T19:07:42.757Z,18.65
2022-09-09T19:12:45.221Z,18.84
2022-09-09T19:17:49.156Z,18.34
2022-09-09T19:22:52.508Z,18.61
2022-09-09T19:27:54.940Z,18.79
2022-09-09T19:32:59.158Z,18.86
2022-09-09T19:38:01.837Z,18.61
2022-09-09T19:43:04.378Z,18.74
2022-09-09T19:48:09.306Z,18.79
2022-09-09T19:53:11.823Z,18.88
2022-09-09T19:58:14.750Z,18.59
2022-09-09T20:03:19.958Z,18.69
2022-09-09T20:08:22.723Z,18.68
2022-09-09T20:13:25.334Z,18.53
2022-09-09T20:18:32.268Z,18.43
2022-09-09T20:23:34.980Z,18.17
2022-09-09T20:28:39.169Z,17.98
2022-09-09T20:33:43.529Z,18.01
2022-09-09T20:38:48.214Z,18.27
2022-09-09T20:43:52.031Z,18.59
2022-09-09T20:48:59.691Z,18.63
2022-09-09T20:54:07.107Z,18.38
2022-09-09T20:59:13.118Z,18.50
2022-09-09T21:04:19.018Z,18.48
2022-09-09T21:09:24.580Z,18.08
2022-09-09T21:14:27.935Z,18.34
2022-09-09T21:19:31.695Z,18.20
2022-09-09T21:24:36.253Z,18.06
2022-09-09T21:29:38.697Z,17.48
2022-09-09T21:34:42.748Z,17.46
2022-09-09T21:39:48.082Z,17.27
2022-09-09T21:44:50.553Z,17.32
2022-09-09T21:49:54.341Z,17.38
2022-09-09T21:54:57.918Z,17.56
2022-09-09T22:00:00.341Z,17.47
2022-09-09T22:05:04.361Z,17.60
2022-09-09T22:10:08.547Z,17.59
2022-09-09T22:15:11.320Z,17.63
2022-09-09T22:20:15.140Z,17.35
2022-09-09T22:25:17.578Z,17.41
2022-09-09T22:30:20.454Z,17.51
2022-09-09T22:35:24.426Z,17.67
2022-09-09T22:40:26.962Z,17.68
2022-09-09T22:45:29.676Z,17.13
2022-09-09T22:50:40.119Z,17.30
2022-09-09T22:55:44.724Z,17.45
2022-09-09T23:00:47.335Z,17.55
2022-09-09T23:06:06.665Z,17.53
2022-09-09T23:11:11.035Z,17.59
2022-09-09T23:16:13.756Z,17.31
2022-09-09T23:21:17.574Z,17.28
2022-09-09T23:26:20.832Z,17.07
2022-09-09T23:31:24.834Z,17.02
2022-09-09T23:36:30.593Z,16.68
2022-09-09T23:41:39.940Z,16.84
2022-09-09T23:46:42.638Z,16.54
2022-09-09T23:51:48.740Z,16.65
2022-09-09T23:56:51.197Z,16.48
